Flight Track Log - Related Links

Times and Time Zones

All times are in EDT time to prevent confusion due to time zone crossing. See the SLI533 flight status page for this flight to view local times or setup timezone preferences in your user account.

Time Position Orientation Groundspeed Altitude Reporting Facility
EDT Latitude Longitude Course Direction KTS MPH feet Rate Location/Type
Tue 03:29:00 PM 19.9325 -96.3046 79° East  Level Estimated
Tue 03:30:00 PM 19.9488 -96.2089 80° East  Level Estimated
Tue 03:31:00 PM 19.9651 -96.1131 80° East  Level Estimated
Tue 03:32:00 PM 19.9814 -96.0174 80° East  Level Estimated
Tue 03:33:00 PM 19.9976 -95.9216 80° East  Level Estimated
Tue 03:34:00 PM 20.0137 -95.8258 80° East  Level Estimated
Tue 03:35:00 PM 20.0298 -95.7299 80° East  Level Estimated
Tue 03:36:00 PM 20.0458 -95.6341 80° East  Level Estimated
Tue 03:37:00 PM 20.0618 -95.5382 80° East  Level Estimated
Tue 03:38:00 PM 20.0778 -95.4423 80° East  Level Estimated
Tue 03:39:00 PM 20.0937 -95.3464 80° East  Level Estimated
Tue 03:40:00 PM 20.1095 -95.2505 80° East  Level Estimated
Tue 03:41:00 PM 20.1253 -95.1545 80° East  Level Estimated
Tue 03:42:00 PM 20.1410 -95.0586 80° East  Level Estimated
Tue 03:43:00 PM 20.1567 -94.9626 80° East  Level Estimated
Tue 03:44:00 PM 20.1723 -94.8666 80° East  Level Estimated
Tue 03:45:00 PM 20.1879 -94.7705 80° East  Level Estimated
Tue 03:46:00 PM 20.2034 -94.6745 80° East  Level Estimated
Tue 03:47:00 PM 20.2189 -94.5784 80° East  Level Estimated
Tue 03:48:00 PM 20.2343 -94.4823 80° East  Level Estimated
Tue 03:49:00 PM 20.2496 -94.3862 80° East  Level Estimated
Tue 03:50:00 PM 20.2649 -94.2901 80° East  Level Estimated
Tue 03:51:00 PM 20.2802 -94.1940 80° East  Level Estimated
Tue 03:52:00 PM 20.2954 -94.0978 80° East  Level Estimated
Tue 03:53:00 PM 20.3106 -94.0016 80° East  Level Estimated
Tue 03:54:00 PM 20.3257 -93.9054 80° East  Level Estimated
Tue 03:55:00 PM 20.3407 -93.8092 81° East  Level Estimated
Tue 03:56:00 PM 20.3557 -93.7130 81° East  Level Estimated
Tue 03:57:00 PM 20.3707 -93.6167 81° East  Level Estimated
Tue 03:58:00 PM 20.3855 -93.5205 81° East  Level Estimated
Tue 03:59:00 PM 20.4004 -93.4242 81° East  Level Estimated
Tue 04:00:00 PM 20.4152 -93.3279 81° East  Level Estimated
Tue 04:01:00 PM 20.4299 -93.2315 81° East  Level Estimated
Tue 04:02:00 PM 20.4446 -93.1352 81° East  Level Estimated
Tue 04:03:00 PM 20.4592 -93.0388 81° East  Level Estimated
Tue 04:04:00 PM 20.4738 -92.9425 81° East  Level Estimated
Tue 04:05:00 PM 20.4883 -92.8460 81° East  Level Estimated
Tue 04:06:00 PM 20.5028 -92.7496 81° East  Level Estimated
Tue 04:07:00 PM 20.5172 -92.6532 81° East  Level Estimated
Tue 04:08:00 PM 20.5315 -92.5567 81° East  Level Estimated
Tue 04:09:00 PM 20.5459 -92.4603 81° East  Level Estimated
Tue 04:10:00 PM 20.5601 -92.3638 81° East  Level Estimated
Tue 04:11:00 PM 20.5743 -92.2673 81° East  Level Estimated
Tue 04:12:00 PM 20.5885 -92.1707 81° East  Level Estimated
Tue 04:13:00 PM 20.6026 -92.0742 81° East  Level Estimated
Tue 04:14:00 PM 20.6166 -91.9776 81° East  Level Estimated
Tue 04:15:00 PM 20.6306 -91.8810 81° East  Level Estimated
Tue 04:16:00 PM 20.6445 -91.7844 81° East  Level Estimated
Tue 04:17:00 PM 20.6584 -91.6878 81° East  Level Estimated
Tue 04:18:00 PM 20.6722 -91.5912 81° East  Level Estimated
Tue 04:19:00 PM 20.6860 -91.4945 81° East  Level Estimated
Tue 04:20:00 PM 20.6997 -91.3979 81° East  Level Estimated

Login

Don't have an account? Register now (free) for customized features, flight alerts, and more!